Airfield :
LOGIN :

Register | Disclaimer

   EN    FR    IT 

 










Legend :    VFR   Marginal VFR   IFR   Intensive IFR   Very Intensive IFR
Visi :
Ceiling :
>= 8 km
>= 3000ft
5 to 8 km
1000 to 3000 ft
1500m to 5 km
500 to 1000 ft
800 to 1500m
200 to 500 ft
< 800m
< 200 ft
Symbols :   Thunderstorms  Fog  Heavy snow  Heavy precipitations  Wind > 20 kt
SIGMETs :     Misc.  Thunderstorms  Icing  Turbulence  Mountain Waves  Volcanic Ashes






- Airport Elevation : 1516 ft
- IATA code : AGB


EDMA - Augsburg

CURRENT METAR :
  • 212350Z AUTO 09002KT 9999 // OVC089/// 02/M00 Q0999

EXPIRED METARs :
  • 212320Z AUTO 27005KT 240V330 9999 // BKN100/// OVC120/// 02/M00 Q0999
  • 212250Z AUTO VRB01KT 9999 // OVC120/// 03/M01 Q0999
  • 212220Z AUTO 17004KT 080V200 9999 // SCT097/// OVC120/// 04/M01 Q0999
  • 212150Z AUTO 14004KT 100V160 9999 // OVC100/// 02/M01 Q0999
  • 212120Z AUTO VRB01KT 9999 // OVC110/// 04/M00 Q1000
  • 212050Z AUTO 16007KT 9999 // BKN110/// OVC130/// 05/M00 Q1000

TAF TAF EDMA
Valid from the 21 at 18:00 until the 22 at 03:00 UTC


211700Z 2118/2203 16005KT CAVOK



MET'MAP, your aeronautical weather chart ! - Copyright ORBIFLY December 2007 - Disclaimer

ORBIFLY MET'MAP TEAM :

Programming & Development : Alexandra Zaïnal
Concept & original design : Baudouin d'Aumeries
Assistance for programming : Marc-Olivier Méhu
Technical & hardware support : Manuel Goepfert

Contact : metmap@orbifly.com




SOURCES & CREDITS :

   NOAA